3AU

Augusta Municipal Airport

Augusta, Kansas, USA
METAR K3AU 161235Z AUTO 00000KT 10SM CLR M03/M08 A3022 RMK AO2
Observed Flight Rules
Dec-16 @ 12:35 UTC (34 minutes ago) Visual Flight Rules
Visibility Clouds
10 miles
  • Clear skies
Temperatures Readings
Current -3°C / 27°F
Dewpoint -8°C / 18°F
Humidity 69%
Altimeter 30.22" Hg
Pressure 1023 hPa
Elevation 405
METAR K3AU 161235Z AUTO 00000KT 10SM CLR M03/M08 A3022 RMK AO2
Observed Flight Rules
Dec-16 @ 12:35 UTC
(34 minutes ago)
VFR
Clouds
  • Clear skies
Temperature Dewpoint
-3°C / 27°F -8°C / 18°F
Humidity Altimeter Pressure
69% 30.22" Hg 1023 hPa